Time;durP1;ratioP1;P1;durP2;ratioP2;P2;SDS_P1;SDS_P2;PMS_P1;PMS_P2;Temp;Humidity;BMP_temperature;BMP_pressure;BME280_temperature;BME280_humidity;BME280_pressure;Samples;Min_cycle;Max_cycle;Signal;HPM_P1;HPM_P2
2023/11/30 00:00:21;;;;;;;10.50;7.97;;;1.10;99.90;;;;;;5097252;28;20550;-44
2023/11/30 00:02:47;;;;;;;8.40;6.87;;;1.00;99.90;;;;;;5098100;28;20180;-42
2023/11/30 00:05:12;;;;;;;7.87;7.10;;;1.00;1.00;;;;;;5097765;28;20232;-40
2023/11/30 00:07:38;;;;;;;9.30;7.60;;;1.00;1.00;;;;;;5097695;28;20585;-41
2023/11/30 00:10:04;;;;;;;8.37;7.50;;;1.00;1.00;;;;;;5098074;28;20211;-41
2023/11/30 00:12:30;;;;;;;9.03;7.30;;;1.00;1.00;;;;;;5097669;28;20473;-42
2023/11/30 00:14:55;;;;;;;9.33;7.40;;;0.90;1.00;;;;;;5078856;28;20411;-40
2023/11/30 00:17:21;;;;;;;8.33;6.93;;;0.90;1.00;;;;;;5097206;28;20416;-41
2023/11/30 00:19:46;;;;;;;8.50;7.13;;;1.00;1.00;;;;;;5078986;28;20169;-41
2023/11/30 00:22:12;;;;;;;9.60;7.70;;;1.00;1.00;;;;;;5096403;28;20204;-42
2023/11/30 00:24:38;;;;;;;7.60;6.80;;;0.90;1.00;;;;;;5078930;28;20180;-41
2023/11/30 00:27:04;;;;;;;8.30;7.40;;;0.90;1.00;;;;;;5096572;28;20267;-42
2023/11/30 00:29:29;;;;;;;10.00;7.60;;;0.90;1.00;;;;;;5096732;28;20172;-43
2023/11/30 00:31:55;;;;;;;7.97;6.97;;;0.80;1.00;;;;;;5095381;28;20524;-42
2023/11/30 00:34:20;;;;;;;9.00;7.60;;;0.80;1.00;;;;;;5097348;28;20559;-40
2023/11/30 00:36:46;;;;;;;8.67;7.40;;;0.80;13.70;;;;;;5096908;28;20200;-41
2023/11/30 00:39:12;;;;;;;10.03;7.70;;;0.80;99.90;;;;;;5096260;28;20168;-42
2023/11/30 00:41:38;;;;;;;8.27;7.40;;;0.80;99.90;;;;;;5095100;28;20339;-41
2023/11/30 00:44:04;;;;;;;11.77;8.37;;;0.80;99.90;;;;;;5095497;28;20773;-41
2023/11/30 00:46:29;;;;;;;10.00;8.50;;;0.80;99.90;;;;;;5096361;28;20570;-41
2023/11/30 00:48:55;;;;;;;11.60;9.50;;;0.80;99.90;;;;;;5061487;28;20243;-43
2023/11/30 00:51:20;;;;;;;10.37;7.73;;;0.80;99.90;;;;;;5095937;28;20487;-42
2023/11/30 00:53:46;;;;;;;11.87;8.60;;;0.80;99.90;;;;;;5096599;28;20195;-41
2023/11/30 00:56:12;;;;;;;10.77;8.30;;;0.80;99.90;;;;;;5095798;28;20188;-43
2023/11/30 00:58:37;;;;;;;10.90;7.87;;;0.80;99.90;;;;;;5095953;28;20180;-40
2023/11/30 01:01:03;;;;;;;10.20;9.07;;;0.80;99.90;;;;;;5079061;28;20180;-43
2023/11/30 01:03:29;;;;;;;13.03;8.03;;;0.80;99.90;;;;;;5077826;28;20476;-42
2023/11/30 01:05:55;;;;;;;10.40;8.93;;;0.80;99.90;;;;;;5096239;28;20501;-40
2023/11/30 01:08:20;;;;;;;12.50;9.50;;;0.80;99.90;;;;;;5077340;28;20299;-42
2023/11/30 01:10:46;;;;;;;11.10;9.43;;;0.80;99.90;;;;;;5095665;28;20525;-43
2023/11/30 01:13:12;;;;;;;11.37;8.50;;;0.80;99.90;;;;;;5095700;28;20180;-42
2023/11/30 01:15:37;;;;;;;12.60;9.93;;;0.80;99.90;;;;;;5077316;28;20165;-44
2023/11/30 01:18:06;;;;;;;12.00;9.57;;;0.80;99.90;;;;;;5096395;28;20410;-43
2023/11/30 01:20:35;;;;;;;12.00;8.67;;;0.80;99.90;;;;;;5079785;28;20191;-43
2023/11/30 01:23:00;;;;;;;11.00;8.80;;;0.80;99.90;;;;;;5079723;28;20609;-42
2023/11/30 01:25:26;;;;;;;11.43;9.23;;;0.70;99.90;;;;;;5097535;28;20995;-42
2023/11/30 01:27:52;;;;;;;9.97;8.60;;;0.70;99.90;;;;;;5097033;28;20216;-43
2023/11/30 01:30:18;;;;;;;10.93;8.60;;;0.70;99.90;;;;;;5097135;28;20227;-42
2023/11/30 01:32:43;;;;;;;9.67;8.03;;;0.70;99.90;;;;;;5097799;28;20247;-40
2023/11/30 01:35:10;;;;;;;9.63;8.17;;;0.70;99.90;;;;;;5096426;28;20523;-42
2023/11/30 01:37:36;;;;;;;10.00;7.97;;;0.60;99.90;;;;;;5096833;28;20535;-40
2023/11/30 01:40:02;;;;;;;9.73;8.17;;;0.60;99.90;;;;;;5096494;28;20501;-42
2023/11/30 01:42:28;;;;;;;9.57;8.40;;;0.60;99.90;;;;;;5097417;28;20430;-42
2023/11/30 01:44:54;;;;;;;9.53;8.03;;;0.60;99.90;;;;;;5096887;28;20180;-41
2023/11/30 01:47:19;;;;;;;10.17;8.73;;;0.60;99.90;;;;;;5078699;28;20470;-43
2023/11/30 01:49:45;;;;;;;8.90;7.60;;;0.60;99.90;;;;;;5096851;28;20243;-41
2023/11/30 01:52:11;;;;;;;10.07;8.70;;;0.50;99.90;;;;;;5078655;28;20460;-40
2023/11/30 01:54:37;;;;;;;7.60;4.47;;;0.50;99.90;;;;;;5096544;28;20237;-44
2023/11/30 01:57:03;;;;;;;15.93;7.10;;;0.80;99.90;;;;;;5078164;28;20406;-46
2023/11/30 01:59:29;;;;;;;20.90;14.57;;;3.60;1.00;;;;;;5094985;28;20441;-44
2023/11/30 02:01:55;;;;;;;24.50;18.83;;;5.40;1.00;;;;;;5094624;28;20505;-42
2023/11/30 02:04:21;;;;;;;13.97;12.50;;;6.10;1.00;;;;;;5094010;28;20549;-40
2023/11/30 02:06:47;;;;;;;12.90;11.60;;;5.50;1.00;;;;;;5095162;28;20184;-40
2023/11/30 02:09:13;;;;;;;10.93;9.70;;;4.60;1.00;;;;;;5094476;28;20766;-41
2023/11/30 02:11:39;;;;;;;11.27;10.07;;;4.00;1.00;;;;;;5094495;28;20477;-41
2023/11/30 02:14:05;;;;;;;12.03;10.10;;;3.40;1.00;;;;;;5094043;28;20517;-43
2023/11/30 02:16:31;;;;;;;11.33;10.17;;;2.90;1.00;;;;;;5095156;28;20437;-42
2023/11/30 02:18:57;;;;;;;11.60;10.40;;;2.60;1.00;;;;;;5096133;28;20430;-42
2023/11/30 02:21:23;;;;;;;12.30;11.10;;;2.30;1.00;;;;;;5094689;28;20180;-42
2023/11/30 02:23:49;;;;;;;12.40;10.40;;;1.90;1.00;;;;;;5094168;28;20669;-41
2023/11/30 02:26:16;;;;;;;14.87;11.57;;;1.70;1.00;;;;;;5095107;28;20841;-39
2023/11/30 02:28:43;;;;;;;12.37;9.60;;;1.50;1.00;;;;;;5095755;28;20462;-43
2023/11/30 02:31:09;;;;;;;13.67;11.53;;;1.40;1.00;;;;;;5076841;28;20522;-41
2023/11/30 02:33:34;;;;;;;15.50;11.93;;;1.30;1.00;;;;;;5094013;28;20447;-41
2023/11/30 02:36:00;;;;;;;12.00;10.80;;;1.20;1.00;;;;;;5094254;28;20179;-41
2023/11/30 02:38:26;;;;;;;17.13;12.20;;;1.10;1.00;;;;;;5077749;28;20181;-42
2023/11/30 02:40:51;;;;;;;13.70;12.27;;;1.00;1.00;;;;;;5095782;28;20180;-41
2023/11/30 02:43:17;;;;;;;16.23;12.07;;;0.90;1.00;;;;;;5096210;28;20565;-40
2023/11/30 02:45:44;;;;;;;14.37;12.30;;;0.80;1.00;;;;;;5077484;28;20176;-43
2023/11/30 02:48:10;;;;;;;14.97;11.27;;;0.70;1.00;;;;;;5094689;28;20281;-43
2023/11/30 02:50:35;;;;;;;13.90;10.93;;;0.60;1.00;;;;;;5078433;28;20438;-40
2023/11/30 02:53:01;;;;;;;13.03;10.90;;;0.60;1.00;;;;;;5077893;28;20574;-42
2023/11/30 02:55:27;;;;;;;12.87;10.33;;;0.50;1.00;;;;;;5094916;28;20259;-41
2023/11/30 02:57:52;;;;;;;11.83;10.37;;;0.40;99.90;;;;;;5095110;28;20495;-40
2023/11/30 03:00:18;;;;;;;12.00;9.73;;;0.40;99.90;;;;;;5095237;28;20196;-40
2023/11/30 03:02:45;;;;;;;12.10;10.20;;;0.40;84.30;;;;;;5094973;28;20180;-40
2023/11/30 03:05:11;;;;;;;13.20;9.93;;;0.30;1.00;;;;;;5095353;28;20439;-41
2023/11/30 03:07:36;;;;;;;11.30;9.97;;;0.30;1.00;;;;;;5097214;28;20537;-39
2023/11/30 03:10:02;;;;;;;9.80;8.80;;;0.30;1.00;;;;;;5098728;28;20549;-40
2023/11/30 03:12:28;;;;;;;9.57;8.47;;;0.30;1.00;;;;;;5080744;28;20221;-40
2023/11/30 03:14:54;;;;;;;11.33;9.70;;;0.30;1.00;;;;;;5099023;28;20430;-40
2023/11/30 03:17:20;;;;;;;11.77;9.30;;;0.30;1.00;;;;;;5099604;28;20169;-40
2023/11/30 03:19:46;;;;;;;11.83;10.60;;;0.30;1.00;;;;;;5099104;28;20172;-41
2023/11/30 03:23:01;;;;;;;11.43;9.93;;;0.30;1.00;;;;;;5098566;28;20437;-42
2023/11/30 03:25:26;;;;;;;10.90;9.80;;;0.30;1.00;;;;;;5099733;28;20263;-40
2023/11/30 03:27:52;;;;;;;13.30;10.40;;;0.30;99.90;;;;;;5099747;28;20569;-42
2023/11/30 03:30:18;;;;;;;10.80;9.67;;;0.30;1.00;;;;;;5099266;28;20252;-39
2023/11/30 03:32:43;;;;;;;11.30;9.73;;;0.30;1.00;;;;;;5098447;28;20188;-43
2023/11/30 03:35:09;;;;;;;10.57;8.60;;;0.20;1.00;;;;;;5099217;28;20180;-40
2023/11/30 03:37:40;;;;;;;11.10;9.13;;;0.30;1.00;;;;;;5082102;28;20515;-41
2023/11/30 03:40:09;;;;;;;11.60;9.80;;;0.30;1.00;;;;;;5099301;28;20582;-40
2023/11/30 03:42:34;;;;;;;11.70;10.13;;;0.30;1.00;;;;;;5099742;28;20410;-39
2023/11/30 03:45:00;;;;;;;12.20;9.77;;;0.30;1.00;;;;;;5099323;28;20479;-39
2023/11/30 03:47:25;;;;;;;12.43;9.40;;;0.40;1.00;;;;;;5099083;28;20214;-40
2023/11/30 03:49:51;;;;;;;10.50;9.40;;;0.40;1.00;;;;;;5099069;28;20180;-40
2023/11/30 03:52:16;;;;;;;10.33;9.33;;;0.40;1.00;;;;;;5098776;28;20662;-42
2023/11/30 03:54:42;;;;;;;12.07;9.57;;;0.50;1.00;;;;;;5098467;28;20187;-40
2023/11/30 03:57:07;;;;;;;11.47;10.33;;;0.50;99.90;;;;;;5099210;28;20164;-40
2023/11/30 03:59:33;;;;;;;9.50;8.50;;;0.50;99.90;;;;;;5097781;28;20253;-42
2023/11/30 04:01:59;;;;;;;13.43;10.27;;;0.50;99.90;;;;;;5099208;28;20172;-40
2023/11/30 04:04:24;;;;;;;9.47;8.50;;;0.50;99.90;;;;;;5098991;28;20465;-39
2023/11/30 04:06:50;;;;;;;12.23;9.27;;;0.50;99.90;;;;;;5098969;28;20176;-43
2023/11/30 04:09:16;;;;;;;12.00;9.90;;;0.50;99.90;;;;;;5098852;28;20196;-40
2023/11/30 04:11:41;;;;;;;12.10;9.30;;;0.50;99.90;;;;;;5099281;28;20426;-40
2023/11/30 04:14:07;;;;;;;12.57;9.47;;;0.50;99.90;;;;;;5097621;28;20263;-43
2023/11/30 04:16:34;;;;;;;10.73;9.30;;;0.50;99.90;;;;;;5096661;28;20547;-45
2023/11/30 04:19:00;;;;;;;13.00;10.50;;;0.50;99.90;;;;;;5095524;28;20438;-40
2023/11/30 04:21:27;;;;;;;12.07;9.50;;;0.50;99.90;;;;;;5097354;28;20461;-40
2023/11/30 04:23:52;;;;;;;10.57;9.00;;;0.60;99.90;;;;;;5097209;28;20426;-40
2023/11/30 04:26:18;;;;;;;9.27;8.30;;;0.50;99.90;;;;;;5097265;28;20427;-42
2023/11/30 04:28:44;;;;;;;10.23;8.83;;;0.50;99.90;;;;;;5097531;28;20509;-41
2023/11/30 04:31:09;;;;;;;11.57;9.80;;;0.50;99.90;;;;;;5097456;28;20228;-40
2023/11/30 04:33:35;;;;;;;13.60;9.23;;;0.50;99.90;;;;;;5097405;28;20255;-39
2023/11/30 04:36:01;;;;;;;11.77;9.30;;;0.50;99.90;;;;;;5079592;28;20408;-40
2023/11/30 04:38:26;;;;;;;13.30;10.47;;;0.40;99.90;;;;;;5096907;28;20427;-40
2023/11/30 04:40:52;;;;;;;9.80;8.80;;;0.50;99.90;;;;;;5097458;28;20184;-43
2023/11/30 04:43:17;;;;;;;13.27;9.10;;;0.50;99.90;;;;;;5096923;28;20184;-43
2023/11/30 04:45:43;;;;;;;11.73;10.30;;;0.50;99.90;;;;;;5096657;28;20183;-40
2023/11/30 04:48:09;;;;;;;10.47;9.40;;;0.50;99.90;;;;;;5097127;28;20204;-44
2023/11/30 04:50:35;;;;;;;10.47;8.97;;;0.50;99.90;;;;;;5097480;28;20226;-41
2023/11/30 04:53:00;;;;;;;13.83;10.90;;;0.50;99.90;;;;;;5096087;28;20191;-42
2023/11/30 04:55:26;;;;;;;12.57;10.30;;;0.50;99.90;;;;;;5095322;28;20430;-40
2023/11/30 04:57:52;;;;;;;12.50;10.90;;;0.60;99.90;;;;;;5076480;28;20267;-41
2023/11/30 05:00:18;;;;;;;13.70;10.40;;;0.50;99.90;;;;;;5094836;28;20188;-39
2023/11/30 05:02:52;;;;;;;12.33;10.47;;;0.50;99.90;;;;;;5094476;28;20514;-41
2023/11/30 05:05:18;;;;;;;11.40;9.30;;;0.50;99.90;;;;;;5095162;28;20434;-40
2023/11/30 05:07:44;;;;;;;10.70;9.60;;;0.50;99.90;;;;;;5095895;28;20576;-40
2023/11/30 05:10:09;;;;;;;12.07;9.63;;;0.50;99.90;;;;;;5096630;28;20609;-39
2023/11/30 05:12:35;;;;;;;11.40;9.50;;;0.50;99.90;;;;;;5076783;28;20539;-41
2023/11/30 05:15:04;;;;;;;11.30;9.63;;;0.50;99.90;;;;;;5095441;28;20600;-41
2023/11/30 05:17:30;;;;;;;12.50;10.50;;;0.50;99.90;;;;;;5095083;28;20184;-42
2023/11/30 05:19:56;;;;;;;11.23;9.57;;;0.50;99.90;;;;;;5093773;28;20832;-40
2023/11/30 05:22:22;;;;;;;10.87;9.40;;;0.50;99.90;;;;;;5093431;28;20184;-39
2023/11/30 05:24:49;;;;;;;9.77;8.77;;;0.40;99.90;;;;;;5092436;28;20504;-39
2023/11/30 05:27:15;;;;;;;11.60;9.60;;;0.40;99.90;;;;;;5092208;28;20246;-40
2023/11/30 05:29:40;;;;;;;13.20;9.83;;;0.40;99.90;;;;;;5091086;28;20572;-39
2023/11/30 05:32:06;;;;;;;13.63;12.03;;;0.30;99.90;;;;;;5089510;28;20247;-41
2023/11/30 05:34:31;;;;;;;12.87;10.10;;;0.30;99.90;;;;;;5074136;28;20633;-42
2023/11/30 05:36:57;;;;;;;13.90;10.83;;;0.30;99.90;;;;;;5092379;28;20188;-40
2023/11/30 05:39:22;;;;;;;13.80;10.93;;;0.40;99.90;;;;;;5092342;28;20490;-41
2023/11/30 05:41:49;;;;;;;14.40;9.77;;;0.30;1.00;;;;;;5090459;28;20515;-40
2023/11/30 05:44:15;;;;;;;13.07;10.23;;;0.40;99.90;;;;;;5090838;28;20524;-41
2023/11/30 05:46:41;;;;;;;15.70;10.07;;;0.40;99.90;;;;;;5092151;28;20972;-41
2023/11/30 05:49:06;;;;;;;10.40;8.57;;;0.40;99.90;;;;;;5092263;28;20644;-39
2023/11/30 05:51:32;;;;;;;12.70;8.47;;;0.40;99.90;;;;;;5093464;28;20275;-41
2023/11/30 05:53:58;;;;;;;7.80;7.00;;;0.50;29.80;;;;;;5091709;28;20713;-39
2023/11/30 05:56:23;;;;;;;10.00;7.20;;;0.50;1.00;;;;;;5093323;28;20890;-41
2023/11/30 05:58:49;;;;;;;9.10;8.20;;;0.50;1.00;;;;;;5092570;28;20190;-41
2023/11/30 06:01:16;;;;;;;10.17;8.40;;;0.50;1.00;;;;;;5092842;28;20538;-39
2023/11/30 06:03:42;;;;;;;9.53;7.20;;;0.50;1.00;;;;;;5093913;28;20247;-40
2023/11/30 06:06:09;;;;;;;10.83;7.83;;;0.50;1.00;;;;;;5074595;28;20469;-40
2023/11/30 06:08:36;;;;;;;8.57;7.10;;;0.50;1.00;;;;;;5093310;28;20506;-43
2023/11/30 06:11:02;;;;;;;10.00;7.23;;;0.60;1.00;;;;;;5093002;28;20450;-40
2023/11/30 06:13:27;;;;;;;9.00;7.40;;;0.60;1.00;;;;;;5092168;28;20461;-39
2023/11/30 06:15:54;;;;;;;8.67;7.77;;;0.60;1.00;;;;;;5092739;28;20210;-39
2023/11/30 06:18:20;;;;;;;10.07;6.90;;;0.70;1.00;;;;;;5090562;28;20490;-39
2023/11/30 06:20:46;;;;;;;11.17;8.10;;;0.70;1.00;;;;;;5091192;28;20524;-40
2023/11/30 06:23:11;;;;;;;8.83;7.33;;;0.70;1.00;;;;;;5091327;28;20239;-40
2023/11/30 06:25:37;;;;;;;10.57;8.67;;;0.70;1.00;;;;;;5092485;28;20188;-39
2023/11/30 06:28:02;;;;;;;9.50;7.77;;;0.70;1.00;;;;;;5090796;28;20721;-39
2023/11/30 06:30:28;;;;;;;9.03;7.43;;;0.70;1.00;;;;;;5089526;28;20228;-42
2023/11/30 06:32:54;;;;;;;9.00;7.97;;;0.70;99.90;;;;;;5090095;28;20180;-42
2023/11/30 06:35:21;;;;;;;9.27;7.97;;;0.70;99.90;;;;;;5091398;28;20265;-40
2023/11/30 06:37:48;;;;;;;9.60;8.60;;;0.80;99.90;;;;;;5093526;28;20185;-43
2023/11/30 06:40:13;;;;;;;12.57;9.60;;;0.80;99.90;;;;;;5071644;28;20519;-40
2023/11/30 06:42:39;;;;;;;9.33;8.13;;;0.80;99.90;;;;;;5091069;28;20841;-39
2023/11/30 06:45:05;;;;;;;11.30;9.07;;;0.80;99.90;;;;;;5092483;28;20271;-40
2023/11/30 06:47:31;;;;;;;11.53;9.43;;;0.80;99.90;;;;;;5093044;28;20204;-41
2023/11/30 06:49:57;;;;;;;13.23;10.43;;;0.80;99.90;;;;;;5094257;28;20571;-39
2023/11/30 06:52:22;;;;;;;13.47;10.70;;;0.80;99.90;;;;;;5093222;28;21014;-39
2023/11/30 06:54:48;;;;;;;12.73;10.67;;;0.90;99.90;;;;;;5093847;28;20263;-40
2023/11/30 06:57:13;;;;;;;9.87;8.87;;;0.90;43.10;;;;;;5093384;28;20168;-39
2023/11/30 06:59:39;;;;;;;13.40;9.57;;;0.90;21.30;;;;;;5093733;28;20271;-42
2023/11/30 07:02:05;;;;;;;11.83;9.90;;;0.90;5.70;;;;;;5093041;28;20249;-43
2023/11/30 07:04:30;;;;;;;14.33;11.30;;;0.90;1.00;;;;;;5093813;28;20195;-40
2023/11/30 07:06:56;;;;;;;12.07;9.67;;;0.90;67.90;;;;;;5092867;28;20426;-40
2023/11/30 07:09:22;;;;;;;12.27;10.93;;;0.90;99.90;;;;;;5091804;28;20352;-39
2023/11/30 07:11:47;;;;;;;11.20;10.00;;;0.90;99.90;;;;;;5093318;28;20176;-41
2023/11/30 07:14:13;;;;;;;12.07;10.20;;;0.90;99.90;;;;;;5092967;28;20238;-40
2023/11/30 07:16:38;;;;;;;12.57;10.20;;;0.90;99.90;;;;;;5092822;28;20333;-40
2023/11/30 07:19:04;;;;;;;15.30;11.93;;;1.00;1.00;;;;;;5093843;28;20187;-39
2023/11/30 07:21:30;;;;;;;12.43;8.93;;;1.00;1.00;;;;;;5094235;28;20220;-43
2023/11/30 07:23:55;;;;;;;12.60;10.40;;;1.00;1.00;;;;;;5093698;28;20176;-39
2023/11/30 07:26:21;;;;;;;13.80;11.13;;;1.00;1.00;;;;;;5094316;28;20188;-40
2023/11/30 07:28:46;;;;;;;13.03;9.17;;;1.00;1.00;;;;;;5090016;28;20455;-39
2023/11/30 07:31:23;;;;;;;12.20;10.43;;;1.00;1.00;;;;;;5091050;28;20264;-40
2023/11/30 07:33:48;;;;;;;15.77;11.57;;;1.10;1.00;;;;;;5091311;28;20184;-40
2023/11/30 07:36:14;;;;;;;12.27;10.40;;;1.10;1.00;;;;;;5093608;28;20406;-39
2023/11/30 07:38:40;;;;;;;11.17;10.00;;;1.00;1.00;;;;;;5092011;28;20570;-41
2023/11/30 07:41:09;;;;;;;13.03;10.60;;;1.00;1.00;;;;;;5095934;28;20188;-39
2023/11/30 07:43:34;;;;;;;12.63;9.93;;;1.00;8.20;;;;;;5097141;28;20176;-40
2023/11/30 07:46:01;;;;;;;11.37;10.17;;;1.00;99.90;;;;;;5094688;28;20832;-41
2023/11/30 07:48:27;;;;;;;13.53;10.93;;;1.00;99.90;;;;;;5094662;28;20207;-40
2023/11/30 07:50:53;;;;;;;11.77;9.93;;;1.10;99.90;;;;;;5096525;28;20709;-40
2023/11/30 07:53:19;;;;;;;13.00;10.80;;;1.20;99.90;;;;;;5094886;28;20789;-40
2023/11/30 07:55:45;;;;;;;14.80;10.70;;;1.20;99.90;;;;;;5094184;28;20538;-42
2023/11/30 07:58:10;;;;;;;13.27;11.20;;;1.30;99.90;;;;;;5093605;28;20438;-40
2023/11/30 08:00:36;;;;;;;17.03;13.00;;;1.40;99.90;;;;;;5092665;28;20332;-41
2023/11/30 08:03:02;;;;;;;13.50;11.43;;;1.40;99.90;;;;;;5090607;28;20497;-40
2023/11/30 08:05:28;;;;;;;14.33;11.93;;;1.50;98.50;;;;;;5090898;28;20447;-40
2023/11/30 08:07:54;;;;;;;14.30;12.00;;;1.50;1.00;;;;;;5092803;28;20652;-43
2023/11/30 08:10:20;;;;;;;14.90;11.40;;;1.50;1.00;;;;;;5093009;28;20418;-39
2023/11/30 08:12:46;;;;;;;13.30;11.87;;;1.50;1.00;;;;;;5076914;28;20651;-41
2023/11/30 08:15:12;;;;;;;15.03;12.53;;;1.60;1.00;;;;;;5095091;28;20160;-40
2023/11/30 08:17:38;;;;;;;16.17;12.20;;;1.70;4.30;;;;;;5093289;28;20557;-40
2023/11/30 08:20:04;;;;;;;13.60;12.20;;;1.70;1.00;;;;;;5095092;28;20434;-41
2023/11/30 08:22:30;;;;;;;15.10;12.53;;;1.80;1.00;;;;;;5095467;28;20287;-41
2023/11/30 08:24:55;;;;;;;13.77;11.60;;;1.80;1.00;;;;;;5095302;28;20526;-41
2023/11/30 08:27:23;;;;;;;13.10;11.63;;;1.90;1.00;;;;;;5093953;28;20164;-42
2023/11/30 08:29:49;;;;;;;17.40;12.97;;;1.90;1.00;;;;;;5092406;28;20179;-42
2023/11/30 08:32:15;;;;;;;13.77;11.67;;;1.90;1.00;;;;;;5094424;28;20570;-40
2023/11/30 08:34:41;;;;;;;12.30;10.60;;;2.00;99.90;;;;;;5092976;28;20426;-44
2023/11/30 08:37:07;;;;;;;17.43;14.33;;;2.10;99.90;;;;;;5092160;28;20494;-41
2023/11/30 08:39:32;;;;;;;12.93;11.50;;;2.10;1.00;;;;;;5093637;28;20175;-40
2023/11/30 08:41:58;;;;;;;15.33;12.70;;;2.10;1.00;;;;;;5095047;28;20281;-41
2023/11/30 08:44:24;;;;;;;15.50;12.77;;;2.10;1.00;;;;;;5095433;28;20176;-39
2023/11/30 08:46:50;;;;;;;14.77;12.30;;;2.20;1.00;;;;;;5094496;28;20180;-40
2023/11/30 08:49:15;;;;;;;15.50;12.57;;;2.30;1.00;;;;;;5095005;28;20470;-42
2023/11/30 08:51:42;;;;;;;13.40;11.90;;;2.40;1.00;;;;;;5094262;28;20301;-40
2023/11/30 08:54:07;;;;;;;14.50;13.00;;;2.40;99.90;;;;;;5093201;28;20168;-41
2023/11/30 08:56:33;;;;;;;15.10;12.90;;;2.40;31.40;;;;;;5090271;28;20436;-40
2023/11/30 08:58:58;;;;;;;14.23;12.70;;;2.50;1.00;;;;;;5092681;28;20219;-41
2023/11/30 09:01:24;;;;;;;15.80;13.77;;;2.50;1.00;;;;;;5093314;28;20173;-42
2023/11/30 09:03:54;;;;;;;16.80;12.83;;;2.60;99.90;;;;;;5092919;28;20267;-40
2023/11/30 09:06:20;;;;;;;14.93;12.73;;;2.60;99.90;;;;;;5093678;28;20229;-39
2023/11/30 09:08:45;;;;;;;13.57;12.13;;;2.60;99.90;;;;;;5093526;28;20469;-39
2023/11/30 09:11:11;;;;;;;13.47;11.60;;;2.60;99.90;;;;;;5094359;28;20368;-41
2023/11/30 09:13:38;;;;;;;14.03;12.17;;;2.80;99.90;;;;;;5093559;28;20204;-40
2023/11/30 09:16:04;;;;;;;13.50;11.63;;;2.90;21.20;;;;;;5094608;28;20422;-43
2023/11/30 09:18:29;;;;;;;14.37;12.83;;;2.90;1.00;;;;;;5093300;28;20262;-40
2023/11/30 09:20:55;;;;;;;13.47;12.07;;;3.00;1.00;;;;;;5095120;28;20696;-41
2023/11/30 09:23:20;;;;;;;13.07;11.67;;;3.00;1.00;;;;;;5095160;28;20203;-40
2023/11/30 09:25:46;;;;;;;13.57;9.23;;;3.10;1.00;;;;;;5094212;28;20200;-44
2023/11/30 09:28:12;;;;;;;19.93;13.10;;;5.30;1.00;;;;;;5093999;28;20255;-43
2023/11/30 09:30:37;;;;;;;19.17;17.07;;;6.50;1.00;;;;;;5093054;28;20329;-41
2023/11/30 09:33:04;;;;;;;15.43;13.83;;;7.40;1.00;;;;;;5092712;28;20574;-41
2023/11/30 09:35:30;;;;;;;14.97;13.37;;;6.90;1.00;;;;;;5094158;28;20303;-39
2023/11/30 09:37:55;;;;;;;13.90;12.40;;;6.50;1.00;;;;;;5093161;28;20530;-41
2023/11/30 09:40:21;;;;;;;14.63;13.13;;;6.20;99.90;;;;;;5092992;28;20243;-41
2023/11/30 09:42:46;;;;;;;14.77;12.73;;;5.80;1.00;;;;;;5092789;28;20207;-42
2023/11/30 09:45:13;;;;;;;13.80;12.40;;;5.50;99.90;;;;;;5094811;28;20202;-41
2023/11/30 09:47:39;;;;;;;14.40;12.60;;;5.40;1.00;;;;;;5092779;28;20215;-44
2023/11/30 09:50:05;;;;;;;12.13;10.83;;;5.20;99.90;;;;;;5076731;28;20533;-40
2023/11/30 09:52:31;;;;;;;13.83;12.43;;;5.10;1.00;;;;;;5093574;28;20281;-46
2023/11/30 09:54:57;;;;;;;12.80;11.50;;;5.10;1.00;;;;;;5094903;28;20426;-40
2023/11/30 09:57:26;;;;;;;14.70;13.23;;;5.10;1.00;;;;;;5094329;28;20163;-43
2023/11/30 09:59:52;;;;;;;14.03;12.03;;;5.10;1.00;;;;;;5094013;28;20862;-41
2023/11/30 10:02:18;;;;;;;14.57;12.20;;;5.10;99.90;;;;;;5075928;28;20434;-44
2023/11/30 10:04:46;;;;;;;14.63;12.80;;;5.10;99.90;;;;;;5093319;28;20542;-42
2023/11/30 10:07:12;;;;;;;14.10;12.60;;;5.10;99.90;;;;;;5095436;28;20499;-41
2023/11/30 10:09:37;;;;;;;13.73;12.10;;;5.10;1.00;;;;;;5092642;28;20471;-42
2023/11/30 10:12:04;;;;;;;13.70;12.07;;;5.10;99.90;;;;;;5075915;28;20424;-42
2023/11/30 10:14:30;;;;;;;12.93;11.63;;;4.90;14.60;;;;;;5092595;28;20179;-41
2023/11/30 10:16:55;;;;;;;13.33;11.93;;;4.90;99.90;;;;;;5092637;28;20513;-44
2023/11/30 10:19:21;;;;;;;14.43;13.03;;;4.90;99.90;;;;;;5093032;28;20184;-41
2023/11/30 10:21:47;;;;;;;13.83;11.40;;;4.80;1.00;;;;;;5093631;28;20187;-43
2023/11/30 10:24:13;;;;;;;13.20;11.80;;;4.70;1.00;;;;;;5092089;28;20611;-43
2023/11/30 10:26:43;;;;;;;17.90;14.20;;;4.70;1.00;;;;;;5091388;28;20422;-42
2023/11/30 10:29:11;;;;;;;14.40;12.90;;;4.60;1.00;;;;;;5093406;28;20265;-41
2023/11/30 10:31:41;;;;;;;13.53;11.67;;;4.60;1.00;;;;;;5093403;28;20508;-40
2023/11/30 10:34:11;;;;;;;15.00;12.20;;;4.70;1.00;;;;;;5092515;28;20445;-40
2023/11/30 10:36:40;;;;;;;12.53;10.97;;;4.60;1.00;;;;;;5091601;28;20505;-41
2023/11/30 10:39:12;;;;;;;13.37;11.97;;;4.50;1.00;;;;;;5089286;28;20418;-41
2023/11/30 10:41:54;;;;;;;15.13;11.37;;;4.40;1.00;;;;;;5089985;28;20652;-40
2023/11/30 10:44:28;;;;;;;12.60;10.93;;;4.20;70.60;;;;;;5090318;28;20529;-40
2023/11/30 10:46:55;;;;;;;11.97;10.67;;;4.10;1.00;;;;;;5091358;28;20541;-41
2023/11/30 10:49:24;;;;;;;13.23;11.83;;;4.10;99.90;;;;;;5090417;28;20583;-41
2023/11/30 10:51:51;;;;;;;12.60;11.07;;;4.10;99.90;;;;;;5072976;28;20453;-43
2023/11/30 10:54:20;;;;;;;13.00;11.60;;;4.00;1.00;;;;;;5091041;28;20812;-42
2023/11/30 10:56:46;;;;;;;12.67;11.37;;;4.00;1.00;;;;;;5089845;28;20525;-39
2023/11/30 10:59:13;;;;;;;14.57;12.60;;;4.00;1.00;;;;;;5093227;28;20441;-41
2023/11/30 11:01:43;;;;;;;14.80;12.20;;;3.90;1.00;;;;;;5094033;28;20930;-40
2023/11/30 11:04:13;;;;;;;16.33;12.30;;;3.80;14.50;;;;;;5093173;28;20440;-40
2023/11/30 11:06:38;;;;;;;13.10;11.57;;;3.80;48.50;;;;;;5090330;28;20503;-44
2023/11/30 11:09:08;;;;;;;15.27;11.67;;;3.70;42.10;;;;;;5091657;28;20732;-41
2023/11/30 11:11:38;;;;;;;14.00;11.70;;;3.70;1.00;;;;;;5091494;28;20535;-41
2023/11/30 11:14:04;;;;;;;14.80;12.57;;;3.70;99.90;;;;;;5091430;28;20437;-40
2023/11/30 11:16:36;;;;;;;13.10;11.70;;;3.60;1.00;;;;;;5091848;28;20712;-41
2023/11/30 11:19:04;;;;;;;12.87;11.47;;;3.60;99.90;;;;;;5091382;28;20191;-42
2023/11/30 11:21:37;;;;;;;10.93;9.83;;;3.60;89.40;;;;;;5072193;28;20715;-40
2023/11/30 11:24:05;;;;;;;13.73;10.20;;;3.60;1.00;;;;;;5091232;28;20550;-40
2023/11/30 11:26:44;;;;;;;12.43;9.23;;;3.50;94.20;;;;;;5091874;28;20536;-41
2023/11/30 11:29:13;;;;;;;11.70;10.00;;;3.40;99.90;;;;;;5094508;28;20473;-41
2023/11/30 11:31:40;;;;;;;10.20;9.17;;;3.40;1.00;;;;;;5093646;28;20470;-40
2023/11/30 11:34:06;;;;;;;9.47;8.47;;;3.40;1.00;;;;;;5093758;28;20737;-42
2023/11/30 11:36:36;;;;;;;12.43;9.93;;;3.50;1.00;;;;;;5076477;28;20497;-41
2023/11/30 11:39:04;;;;;;;9.20;8.23;;;3.50;1.00;;;;;;5095665;28;20410;-40
2023/11/30 11:41:33;;;;;;;11.23;8.73;;;3.60;99.90;;;;;;5095083;28;20461;-41
2023/11/30 11:43:59;;;;;;;9.73;7.73;;;3.60;1.00;;;;;;5095802;28;20499;-41
2023/11/30 11:46:24;;;;;;;9.80;8.33;;;3.60;1.00;;;;;;5093840;28;20422;-42
2023/11/30 11:48:50;;;;;;;9.83;7.90;;;3.50;99.90;;;;;;5094221;28;20308;-40
2023/11/30 11:51:16;;;;;;;8.97;8.00;;;3.50;99.90;;;;;;5094785;28;20160;-42
2023/11/30 11:53:42;;;;;;;9.27;7.87;;;3.60;99.90;;;;;;5093872;28;20521;-42
2023/11/30 11:56:09;;;;;;;10.73;8.33;;;3.80;1.00;;;;;;5091127;28;20793;-40
2023/11/30 11:58:39;;;;;;;9.30;8.40;;;3.90;1.00;;;;;;5093408;28;20204;-41
2023/11/30 12:01:06;;;;;;;8.90;7.77;;;4.00;1.00;;;;;;5077880;28;20434;-42
2023/11/30 12:03:32;;;;;;;10.07;8.80;;;4.00;1.00;;;;;;5094145;28;20406;-40
2023/11/30 12:05:59;;;;;;;9.07;8.10;;;4.10;99.90;;;;;;5075446;28;20713;-41
2023/11/30 12:08:30;;;;;;;10.27;9.17;;;4.00;99.90;;;;;;5093989;28;20231;-40
2023/11/30 12:10:56;;;;;;;9.63;7.50;;;4.00;99.90;;;;;;5094228;28;20419;-40
2023/11/30 12:13:26;;;;;;;9.17;7.70;;;4.00;1.00;;;;;;5078486;28;20492;-42
2023/11/30 12:15:53;;;;;;;7.83;7.00;;;3.90;1.00;;;;;;5059928;28;20184;-41
2023/11/30 12:18:19;;;;;;;9.57;8.43;;;3.90;99.90;;;;;;5074911;28;20694;-41
2023/11/30 12:20:44;;;;;;;8.60;7.70;;;3.90;99.90;;;;;;5091221;28;20457;-41
2023/11/30 12:23:12;;;;;;;10.27;7.63;;;3.90;99.90;;;;;;5073189;28;20211;-44
2023/11/30 12:25:38;;;;;;;9.50;7.57;;;3.90;99.90;;;;;;5094303;28;20230;-43
2023/11/30 12:28:04;;;;;;;8.40;7.03;;;3.90;1.00;;;;;;5094501;28;20495;-41
2023/11/30 12:30:30;;;;;;;9.53;7.47;;;3.90;1.00;;;;;;5093286;28;20474;-39
2023/11/30 12:32:55;;;;;;;7.63;6.80;;;4.00;1.00;;;;;;5089322;28;20734;-41
2023/11/30 12:35:21;;;;;;;9.00;7.70;;;4.20;1.00;;;;;;5088858;28;20400;-41
2023/11/30 12:37:48;;;;;;;7.40;6.70;;;4.40;1.00;;;;;;5088501;28;20233;-41
2023/11/30 12:40:14;;;;;;;8.10;6.93;;;4.50;99.90;;;;;;5089722;28;20418;-40
2023/11/30 12:42:41;;;;;;;7.57;6.73;;;4.60;81.80;;;;;;5089894;28;20483;-40
2023/11/30 12:45:07;;;;;;;8.03;7.23;;;4.60;1.00;;;;;;5088376;28;20846;-41